sensor_id;sensor_type;location;lat;lon;timestamp;pressure;altitude;pressure_sealevel;temperature;humidity
70555;BME280;58104;52.744;15.242;2023-05-25T00:01:16;101535.83;;;19.62;45.33
70555;BME280;58104;52.744;15.242;2023-05-25T00:03:42;101534.61;;;19.36;45.83
70555;BME280;58104;52.744;15.242;2023-05-25T00:06:07;101533.60;;;19.14;46.18
70555;BME280;58104;52.744;15.242;2023-05-25T00:08:33;101537.75;;;19.15;46.45
70555;BME280;58104;52.744;15.242;2023-05-25T00:10:58;101539.93;;;19.22;46.46
70555;BME280;58104;52.744;15.242;2023-05-25T00:13:24;101537.91;;;19.36;45.84
70555;BME280;58104;52.744;15.242;2023-05-25T00:15:49;101540.66;;;19.56;45.60
70555;BME280;58104;52.744;15.242;2023-05-25T00:18:14;101540.31;;;19.34;46.03
70555;BME280;58104;52.744;15.242;2023-05-25T00:20:40;101538.08;;;19.13;46.48
70555;BME280;58104;52.744;15.242;2023-05-25T00:23:05;101538.37;;;19.03;46.67
70555;BME280;58104;52.744;15.242;2023-05-25T00:25:31;101544.43;;;19.02;46.69
70555;BME280;58104;52.744;15.242;2023-05-25T00:27:57;101543.14;;;19.13;46.41
70555;BME280;58104;52.744;15.242;2023-05-25T00:30:23;101545.50;;;19.15;46.42
70555;BME280;58104;52.744;15.242;2023-05-25T00:32:48;101542.62;;;19.16;46.42
70555;BME280;58104;52.744;15.242;2023-05-25T00:35:13;101541.82;;;19.56;45.67
70555;BME280;58104;52.744;15.242;2023-05-25T00:37:39;101542.05;;;19.77;45.19
70555;BME280;58104;52.744;15.242;2023-05-25T00:40:07;101542.41;;;19.82;44.90
70555;BME280;58104;52.744;15.242;2023-05-25T00:42:30;101544.58;;;19.79;44.92
70555;BME280;58104;52.744;15.242;2023-05-25T00:44:55;101543.22;;;19.89;44.80
70555;BME280;58104;52.744;15.242;2023-05-25T00:47:20;101545.47;;;19.76;45.00
70555;BME280;58104;52.744;15.242;2023-05-25T00:49:45;101547.41;;;19.78;45.02
70555;BME280;58104;52.744;15.242;2023-05-25T00:52:11;101549.87;;;19.76;45.16
70555;BME280;58104;52.744;15.242;2023-05-25T00:54:36;101548.03;;;19.83;44.93
70555;BME280;58104;52.744;15.242;2023-05-25T00:57:03;101551.84;;;19.83;44.93
70555;BME280;58104;52.744;15.242;2023-05-25T00:59:32;101553.18;;;19.81;44.81
70555;BME280;58104;52.744;15.242;2023-05-25T01:01:52;101551.93;;;19.83;44.78
70555;BME280;58104;52.744;15.242;2023-05-25T01:04:18;101553.91;;;20.04;44.30
70555;BME280;58104;52.744;15.242;2023-05-25T01:06:47;101554.87;;;20.19;44.05
70555;BME280;58104;52.744;15.242;2023-05-25T01:09:10;101556.79;;;20.14;44.16
70555;BME280;58104;52.744;15.242;2023-05-25T01:11:36;101557.55;;;20.14;44.03
70555;BME280;58104;52.744;15.242;2023-05-25T01:14:00;101558.91;;;20.00;44.36
70555;BME280;58104;52.744;15.242;2023-05-25T01:16:25;101557.57;;;20.22;43.84
70555;BME280;58104;52.744;15.242;2023-05-25T01:18:50;101554.27;;;19.95;44.62
70555;BME280;58104;52.744;15.242;2023-05-25T01:21:20;101553.78;;;20.09;44.12
70555;BME280;58104;52.744;15.242;2023-05-25T01:23:47;101556.53;;;20.12;44.00
70555;BME280;58104;52.744;15.242;2023-05-25T01:26:12;101555.88;;;20.10;44.17
70555;BME280;58104;52.744;15.242;2023-05-25T01:28:37;101554.93;;;19.96;44.57
70555;BME280;58104;52.744;15.242;2023-05-25T01:30:58;101553.39;;;20.19;43.91
70555;BME280;58104;52.744;15.242;2023-05-25T01:33:22;101552.06;;;19.77;45.02
70555;BME280;58104;52.744;15.242;2023-05-25T01:35:48;101550.96;;;19.48;45.99
70555;BME280;58104;52.744;15.242;2023-05-25T01:38:13;101550.53;;;19.57;45.71
70555;BME280;58104;52.744;15.242;2023-05-25T01:40:38;101546.99;;;19.40;45.92
70555;BME280;58104;52.744;15.242;2023-05-25T01:43:04;101544.27;;;19.26;46.32
70555;BME280;58104;52.744;15.242;2023-05-25T01:45:29;101543.19;;;19.20;46.67
70555;BME280;58104;52.744;15.242;2023-05-25T01:48:04;101543.48;;;19.29;46.61
70555;BME280;58104;52.744;15.242;2023-05-25T01:50:23;101544.97;;;19.18;46.69
70555;BME280;58104;52.744;15.242;2023-05-25T01:52:50;101545.07;;;19.15;46.69
70555;BME280;58104;52.744;15.242;2023-05-25T01:55:11;101543.66;;;19.17;46.53
70555;BME280;58104;52.744;15.242;2023-05-25T01:57:37;101541.80;;;19.18;46.80
70555;BME280;58104;52.744;15.242;2023-05-25T02:00:02;101539.39;;;19.13;46.67
70555;BME280;58104;52.744;15.242;2023-05-25T02:02:27;101541.80;;;19.11;46.62
70555;BME280;58104;52.744;15.242;2023-05-25T02:04:52;101547.01;;;19.00;46.87
70555;BME280;58104;52.744;15.242;2023-05-25T02:07:17;101546.76;;;19.09;46.90
70555;BME280;58104;52.744;15.242;2023-05-25T02:09:43;101549.30;;;18.97;46.90
70555;BME280;58104;52.744;15.242;2023-05-25T02:12:08;101547.47;;;19.16;46.75
70555;BME280;58104;52.744;15.242;2023-05-25T02:14:33;101547.68;;;19.23;46.39
70555;BME280;58104;52.744;15.242;2023-05-25T02:16:59;101549.23;;;19.36;46.11
70555;BME280;58104;52.744;15.242;2023-05-25T02:19:25;101549.87;;;19.20;46.37
70555;BME280;58104;52.744;15.242;2023-05-25T02:21:50;101550.66;;;19.14;46.75
70555;BME280;58104;52.744;15.242;2023-05-25T02:24:16;101548.70;;;19.06;47.15
70555;BME280;58104;52.744;15.242;2023-05-25T02:26:41;101545.53;;;19.03;47.41
70555;BME280;58104;52.744;15.242;2023-05-25T02:29:06;101547.66;;;18.95;47.64
70555;BME280;58104;52.744;15.242;2023-05-25T02:31:31;101545.00;;;18.92;47.73
70555;BME280;58104;52.744;15.242;2023-05-25T02:33:57;101543.96;;;18.92;47.82
70555;BME280;58104;52.744;15.242;2023-05-25T02:36:22;101546.04;;;18.91;47.96
70555;BME280;58104;52.744;15.242;2023-05-25T02:38:47;101550.14;;;18.92;47.87
70555;BME280;58104;52.744;15.242;2023-05-25T02:41:14;101552.42;;;18.84;48.16
70555;BME280;58104;52.744;15.242;2023-05-25T02:43:38;101551.70;;;18.75;48.22
70555;BME280;58104;52.744;15.242;2023-05-25T02:46:03;101554.25;;;18.78;48.33
70555;BME280;58104;52.744;15.242;2023-05-25T02:48:28;101551.61;;;18.91;48.00
70555;BME280;58104;52.744;15.242;2023-05-25T02:50:54;101551.15;;;18.89;48.07
70555;BME280;58104;52.744;15.242;2023-05-25T02:53:19;101547.97;;;18.96;48.02
70555;BME280;58104;52.744;15.242;2023-05-25T02:55:45;101546.94;;;18.99;48.03
70555;BME280;58104;52.744;15.242;2023-05-25T02:58:10;101546.13;;;18.94;47.92
70555;BME280;58104;52.744;15.242;2023-05-25T03:00:36;101546.35;;;19.07;47.86
70555;BME280;58104;52.744;15.242;2023-05-25T03:03:01;101548.60;;;19.06;47.64
70555;BME280;58104;52.744;15.242;2023-05-25T03:05:26;101550.43;;;19.12;47.78
70555;BME280;58104;52.744;15.242;2023-05-25T03:07:51;101551.64;;;19.12;47.73
70555;BME280;58104;52.744;15.242;2023-05-25T03:10:17;101548.16;;;19.16;47.65
70555;BME280;58104;52.744;15.242;2023-05-25T03:12:43;101548.97;;;19.09;47.64
70555;BME280;58104;52.744;15.242;2023-05-25T03:15:09;101552.26;;;19.11;47.63
70555;BME280;58104;52.744;15.242;2023-05-25T03:17:34;101551.98;;;19.27;47.12
70555;BME280;58104;52.744;15.242;2023-05-25T03:19:59;101553.36;;;19.25;47.14
70555;BME280;58104;52.744;15.242;2023-05-25T03:22:25;101555.92;;;19.38;46.95
70555;BME280;58104;52.744;15.242;2023-05-25T03:24:50;101561.01;;;19.52;46.46
70555;BME280;58104;52.744;15.242;2023-05-25T03:27:15;101558.38;;;19.38;46.84
70555;BME280;58104;52.744;15.242;2023-05-25T03:29:40;101559.53;;;19.17;47.12
70555;BME280;58104;52.744;15.242;2023-05-25T03:32:06;101558.68;;;19.34;46.86
70555;BME280;58104;52.744;15.242;2023-05-25T03:34:31;101559.68;;;19.06;47.29
70555;BME280;58104;52.744;15.242;2023-05-25T03:36:56;101560.33;;;18.98;47.74
70555;BME280;58104;52.744;15.242;2023-05-25T03:39:22;101557.46;;;18.85;48.27
70555;BME280;58104;52.744;15.242;2023-05-25T03:41:48;101556.07;;;18.86;48.19
70555;BME280;58104;52.744;15.242;2023-05-25T03:44:13;101556.09;;;18.76;48.48
70555;BME280;58104;52.744;15.242;2023-05-25T03:46:39;101557.54;;;18.83;48.22
70555;BME280;58104;52.744;15.242;2023-05-25T03:49:05;101558.33;;;18.80;48.46
70555;BME280;58104;52.744;15.242;2023-05-25T03:51:30;101559.51;;;18.74;48.55
70555;BME280;58104;52.744;15.242;2023-05-25T03:53:55;101560.07;;;18.56;48.23
70555;BME280;58104;52.744;15.242;2023-05-25T03:56:21;101561.54;;;18.40;48.45
70555;BME280;58104;52.744;15.242;2023-05-25T03:58:46;101563.70;;;18.80;47.54
70555;BME280;58104;52.744;15.242;2023-05-25T04:01:11;101565.35;;;18.79;47.40
70555;BME280;58104;52.744;15.242;2023-05-25T04:03:37;101566.47;;;18.68;47.45
70555;BME280;58104;52.744;15.242;2023-05-25T04:06:02;101567.71;;;18.79;47.07
70555;BME280;58104;52.744;15.242;2023-05-25T04:08:27;101566.84;;;18.94;46.51
70555;BME280;58104;52.744;15.242;2023-05-25T04:10:53;101565.38;;;19.17;46.41
70555;BME280;58104;52.744;15.242;2023-05-25T04:13:18;101566.28;;;18.77;47.13
70555;BME280;58104;52.744;15.242;2023-05-25T04:15:44;101567.29;;;18.87;47.16
70555;BME280;58104;52.744;15.242;2023-05-25T04:18:09;101568.74;;;18.94;47.55
70555;BME280;58104;52.744;15.242;2023-05-25T04:20:35;101568.75;;;18.91;47.29
70555;BME280;58104;52.744;15.242;2023-05-25T04:22:59;101567.35;;;19.21;46.65
70555;BME280;58104;52.744;15.242;2023-05-25T04:25:25;101566.36;;;18.87;47.28
70555;BME280;58104;52.744;15.242;2023-05-25T04:27:51;101565.11;;;18.82;47.23
70555;BME280;58104;52.744;15.242;2023-05-25T04:30:17;101567.49;;;18.95;47.17
70555;BME280;58104;52.744;15.242;2023-05-25T04:32:42;101567.17;;;19.07;47.09
70555;BME280;58104;52.744;15.242;2023-05-25T04:35:07;101566.16;;;19.17;46.77
70555;BME280;58104;52.744;15.242;2023-05-25T04:37:33;101566.53;;;19.20;46.64
70555;BME280;58104;52.744;15.242;2023-05-25T04:39:58;101568.82;;;19.19;46.62
70555;BME280;58104;52.744;15.242;2023-05-25T04:42:24;101569.20;;;19.14;46.59
70555;BME280;58104;52.744;15.242;2023-05-25T04:44:49;101574.23;;;19.21;46.44
70555;BME280;58104;52.744;15.242;2023-05-25T04:47:15;101574.69;;;19.39;46.04
70555;BME280;58104;52.744;15.242;2023-05-25T04:49:40;101576.23;;;19.31;46.15
70555;BME280;58104;52.744;15.242;2023-05-25T04:52:06;101577.57;;;19.44;45.90
70555;BME280;58104;52.744;15.242;2023-05-25T04:54:31;101579.59;;;19.28;45.96
70555;BME280;58104;52.744;15.242;2023-05-25T04:56:56;101584.72;;;19.33;45.94
70555;BME280;58104;52.744;15.242;2023-05-25T04:59:21;101589.15;;;19.32;46.07
70555;BME280;58104;52.744;15.242;2023-05-25T05:01:47;101592.16;;;19.34;46.15
70555;BME280;58104;52.744;15.242;2023-05-25T05:04:12;101591.33;;;19.52;47.32
70555;BME280;58104;52.744;15.242;2023-05-25T05:06:37;101592.93;;;19.61;47.00
70555;BME280;58104;52.744;15.242;2023-05-25T05:09:03;101591.81;;;19.63;47.15
70555;BME280;58104;52.744;15.242;2023-05-25T05:11:28;101590.92;;;19.44;46.85
70555;BME280;58104;52.744;15.242;2023-05-25T05:13:53;101591.16;;;19.61;46.77
70555;BME280;58104;52.744;15.242;2023-05-25T05:16:18;101590.16;;;19.78;45.95
70555;BME280;58104;52.744;15.242;2023-05-25T05:18:43;101589.25;;;19.62;46.50
70555;BME280;58104;52.744;15.242;2023-05-25T05:21:09;101592.60;;;19.61;46.35
70555;BME280;58104;52.744;15.242;2023-05-25T05:23:35;101596.38;;;19.69;46.04
70555;BME280;58104;52.744;15.242;2023-05-25T05:26:00;101595.88;;;19.68;46.03
70555;BME280;58104;52.744;15.242;2023-05-25T05:28:26;101596.35;;;19.75;45.91
70555;BME280;58104;52.744;15.242;2023-05-25T05:30:51;101596.98;;;19.76;46.17
70555;BME280;58104;52.744;15.242;2023-05-25T05:33:16;101597.12;;;19.67;46.37
70555;BME280;58104;52.744;15.242;2023-05-25T05:35:42;101594.83;;;19.56;46.40
70555;BME280;58104;52.744;15.242;2023-05-25T05:38:07;101596.79;;;19.70;46.32
70555;BME280;58104;52.744;15.242;2023-05-25T05:40:33;101597.23;;;19.61;46.21
70555;BME280;58104;52.744;15.242;2023-05-25T05:42:58;101598.56;;;19.65;45.90
70555;BME280;58104;52.744;15.242;2023-05-25T05:45:23;101599.11;;;19.67;46.02
70555;BME280;58104;52.744;15.242;2023-05-25T05:47:50;101599.55;;;19.56;46.58
70555;BME280;58104;52.744;15.242;2023-05-25T05:50:14;101601.59;;;19.67;46.14
70555;BME280;58104;52.744;15.242;2023-05-25T05:52:40;101604.32;;;19.58;46.01
70555;BME280;58104;52.744;15.242;2023-05-25T05:55:06;101605.44;;;19.47;46.38
70555;BME280;58104;52.744;15.242;2023-05-25T05:57:31;101603.24;;;19.59;45.98
70555;BME280;58104;52.744;15.242;2023-05-25T05:59:56;101604.53;;;19.72;45.98
70555;BME280;58104;52.744;15.242;2023-05-25T06:02:21;101607.44;;;19.65;46.32
70555;BME280;58104;52.744;15.242;2023-05-25T06:04:47;101611.58;;;19.48;46.53
70555;BME280;58104;52.744;15.242;2023-05-25T06:07:12;101611.61;;;19.66;46.26
70555;BME280;58104;52.744;15.242;2023-05-25T06:09:37;101611.05;;;19.66;46.42
70555;BME280;58104;52.744;15.242;2023-05-25T06:12:02;101618.30;;;19.59;47.18
70555;BME280;58104;52.744;15.242;2023-05-25T06:14:27;101619.68;;;19.80;46.95
70555;BME280;58104;52.744;15.242;2023-05-25T06:16:58;101621.72;;;19.93;47.38
70555;BME280;58104;52.744;15.242;2023-05-25T06:19:18;101623.68;;;19.75;47.45
70555;BME280;58104;52.744;15.242;2023-05-25T06:21:43;101626.85;;;19.63;47.85
70555;BME280;58104;52.744;15.242;2023-05-25T06:24:09;101627.96;;;19.94;47.54
70555;BME280;58104;52.744;15.242;2023-05-25T06:26:34;101627.71;;;20.23;46.63
70555;BME280;58104;52.744;15.242;2023-05-25T06:29:00;101629.02;;;20.68;45.88
70555;BME280;58104;52.744;15.242;2023-05-25T06:31:25;101633.85;;;21.21;44.97
70555;BME280;58104;52.744;15.242;2023-05-25T06:33:50;101633.62;;;21.27;44.94
70555;BME280;58104;52.744;15.242;2023-05-25T06:36:16;101633.35;;;21.30;44.67
70555;BME280;58104;52.744;15.242;2023-05-25T06:38:42;101636.16;;;21.41;44.00
70555;BME280;58104;52.744;15.242;2023-05-25T06:41:07;101641.20;;;21.26;43.57
70555;BME280;58104;52.744;15.242;2023-05-25T06:43:32;101641.94;;;21.45;43.54
70555;BME280;58104;52.744;15.242;2023-05-25T06:45:57;101642.74;;;21.24;43.65
70555;BME280;58104;52.744;15.242;2023-05-25T06:48:23;101645.51;;;21.36;43.29
70555;BME280;58104;52.744;15.242;2023-05-25T06:50:48;101648.09;;;21.23;43.65
70555;BME280;58104;52.744;15.242;2023-05-25T06:53:14;101647.37;;;21.54;43.06
70555;BME280;58104;52.744;15.242;2023-05-25T06:55:39;101647.36;;;21.65;42.70
70555;BME280;58104;52.744;15.242;2023-05-25T06:58:05;101645.96;;;21.37;42.86
70555;BME280;58104;52.744;15.242;2023-05-25T07:00:30;101649.14;;;21.12;42.94
70555;BME280;58104;52.744;15.242;2023-05-25T07:02:56;101650.58;;;21.03;43.27
70555;BME280;58104;52.744;15.242;2023-05-25T07:05:21;101655.71;;;20.98;43.25
70555;BME280;58104;52.744;15.242;2023-05-25T07:07:47;101654.23;;;21.24;43.52
70555;BME280;58104;52.744;15.242;2023-05-25T07:10:12;101658.89;;;21.12;43.17
70555;BME280;58104;52.744;15.242;2023-05-25T07:12:37;101654.15;;;21.10;42.85
70555;BME280;58104;52.744;15.242;2023-05-25T07:15:03;101656.13;;;21.05;42.99
70555;BME280;58104;52.744;15.242;2023-05-25T07:17:28;101655.11;;;21.37;42.10
70555;BME280;58104;52.744;15.242;2023-05-25T07:19:53;101654.98;;;21.55;41.24
70555;BME280;58104;52.744;15.242;2023-05-25T07:22:19;101654.55;;;21.41;41.30
70555;BME280;58104;52.744;15.242;2023-05-25T07:24:44;101660.90;;;21.55;41.93
70555;BME280;58104;52.744;15.242;2023-05-25T07:27:10;101665.46;;;21.16;41.78
70555;BME280;58104;52.744;15.242;2023-05-25T07:29:35;101665.14;;;20.97;42.46
70555;BME280;58104;52.744;15.242;2023-05-25T07:32:01;101665.58;;;21.05;42.58
70555;BME280;58104;52.744;15.242;2023-05-25T07:34:27;101664.90;;;21.11;42.07
70555;BME280;58104;52.744;15.242;2023-05-25T07:36:52;101659.18;;;21.41;41.34
70555;BME280;58104;52.744;15.242;2023-05-25T07:39:18;101663.33;;;21.32;41.70
70555;BME280;58104;52.744;15.242;2023-05-25T07:41:43;101668.31;;;21.27;42.46
70555;BME280;58104;52.744;15.242;2023-05-25T07:44:08;101666.57;;;21.43;41.88
70555;BME280;58104;52.744;15.242;2023-05-25T07:46:33;101669.41;;;21.66;40.95
70555;BME280;58104;52.744;15.242;2023-05-25T07:48:59;101667.67;;;21.96;41.52
70555;BME280;58104;52.744;15.242;2023-05-25T07:51:24;101665.67;;;22.34;39.90
70555;BME280;58104;52.744;15.242;2023-05-25T07:53:50;101670.87;;;22.55;39.72
70555;BME280;58104;52.744;15.242;2023-05-25T07:56:15;101670.56;;;22.36;40.01
70555;BME280;58104;52.744;15.242;2023-05-25T07:58:40;101670.05;;;22.65;39.47
70555;BME280;58104;52.744;15.242;2023-05-25T08:01:06;101672.74;;;22.51;39.49
70555;BME280;58104;52.744;15.242;2023-05-25T08:03:31;101676.14;;;22.40;39.32
70555;BME280;58104;52.744;15.242;2023-05-25T08:05:57;101673.37;;;22.53;39.34
70555;BME280;58104;52.744;15.242;2023-05-25T08:08:22;101676.15;;;22.51;39.46
70555;BME280;58104;52.744;15.242;2023-05-25T08:10:48;101676.76;;;22.37;40.00
70555;BME280;58104;52.744;15.242;2023-05-25T08:13:13;101669.59;;;21.93;39.65
70555;BME280;58104;52.744;15.242;2023-05-25T08:15:38;101672.81;;;21.68;40.43
70555;BME280;58104;52.744;15.242;2023-05-25T08:18:04;101672.04;;;21.76;39.03
70555;BME280;58104;52.744;15.242;2023-05-25T08:20:29;101674.01;;;21.68;40.02
70555;BME280;58104;52.744;15.242;2023-05-25T08:22:54;101675.74;;;22.12;39.92
70555;BME280;58104;52.744;15.242;2023-05-25T08:25:20;101672.58;;;22.23;38.82
70555;BME280;58104;52.744;15.242;2023-05-25T08:27:46;101675.88;;;22.03;39.41
70555;BME280;58104;52.744;15.242;2023-05-25T08:30:11;101678.38;;;22.22;38.51
70555;BME280;58104;52.744;15.242;2023-05-25T08:32:36;101677.35;;;21.88;39.09
70555;BME280;58104;52.744;15.242;2023-05-25T08:35:01;101679.57;;;22.56;38.81
70555;BME280;58104;52.744;15.242;2023-05-25T08:37:27;101676.86;;;22.30;39.33
70555;BME280;58104;52.744;15.242;2023-05-25T08:39:57;101678.87;;;22.70;38.48
70555;BME280;58104;52.744;15.242;2023-05-25T08:42:17;101676.02;;;22.43;39.05
70555;BME280;58104;52.744;15.242;2023-05-25T08:44:43;101676.13;;;22.57;38.36
70555;BME280;58104;52.744;15.242;2023-05-25T08:47:10;101677.97;;;22.32;38.52
70555;BME280;58104;52.744;15.242;2023-05-25T08:49:37;101674.68;;;22.30;39.42
70555;BME280;58104;52.744;15.242;2023-05-25T08:51:59;101677.34;;;22.61;38.40
70555;BME280;58104;52.744;15.242;2023-05-25T08:54:31;101670.59;;;22.57;37.96
70555;BME280;58104;52.744;15.242;2023-05-25T08:56:51;101671.73;;;22.83;37.69
70555;BME280;58104;52.744;15.242;2023-05-25T08:59:23;101673.72;;;22.54;37.32
70555;BME280;58104;52.744;15.242;2023-05-25T09:01:44;101671.12;;;22.13;38.20
70555;BME280;58104;52.744;15.242;2023-05-25T09:04:06;101675.24;;;22.67;36.92
70555;BME280;58104;52.744;15.242;2023-05-25T09:06:31;101675.70;;;22.65;36.65
70555;BME280;58104;52.744;15.242;2023-05-25T09:08:57;101679.03;;;22.74;36.42
70555;BME280;58104;52.744;15.242;2023-05-25T09:11:22;101677.48;;;22.42;37.16
70555;BME280;58104;52.744;15.242;2023-05-25T09:13:47;101677.33;;;22.15;36.49
70555;BME280;58104;52.744;15.242;2023-05-25T09:16:13;101680.09;;;22.35;36.60
70555;BME280;58104;52.744;15.242;2023-05-25T09:18:38;101684.92;;;22.65;36.22
70555;BME280;58104;52.744;15.242;2023-05-25T09:21:03;101684.65;;;22.59;36.20
70555;BME280;58104;52.744;15.242;2023-05-25T09:23:29;101691.51;;;22.59;35.54
70555;BME280;58104;52.744;15.242;2023-05-25T09:25:55;101692.47;;;22.11;36.35
70555;BME280;58104;52.744;15.242;2023-05-25T09:28:20;101691.03;;;22.57;35.97
70555;BME280;58104;52.744;15.242;2023-05-25T09:30:45;101685.97;;;22.98;36.25
70555;BME280;58104;52.744;15.242;2023-05-25T09:33:11;101688.70;;;23.22;35.72
70555;BME280;58104;52.744;15.242;2023-05-25T09:35:36;101685.56;;;23.02;36.40
70555;BME280;58104;52.744;15.242;2023-05-25T09:38:01;101685.28;;;23.34;36.09
70555;BME280;58104;52.744;15.242;2023-05-25T09:40:27;101686.52;;;23.37;36.05
70555;BME280;58104;52.744;15.242;2023-05-25T09:42:52;101689.30;;;23.37;36.06
70555;BME280;58104;52.744;15.242;2023-05-25T09:45:18;101686.02;;;23.17;34.83
70555;BME280;58104;52.744;15.242;2023-05-25T09:47:43;101685.97;;;23.15;35.80
70555;BME280;58104;52.744;15.242;2023-05-25T09:50:09;101690.34;;;23.28;36.11
70555;BME280;58104;52.744;15.242;2023-05-25T09:52:35;101682.05;;;22.95;34.33
70555;BME280;58104;52.744;15.242;2023-05-25T09:55:01;101680.77;;;23.24;35.53
70555;BME280;58104;52.744;15.242;2023-05-25T09:57:26;101679.81;;;23.25;35.45
70555;BME280;58104;52.744;15.242;2023-05-25T09:59:51;101680.13;;;23.12;35.68
70555;BME280;58104;52.744;15.242;2023-05-25T10:02:15;101679.66;;;23.08;35.69
70555;BME280;58104;52.744;15.242;2023-05-25T10:04:41;101685.05;;;22.98;35.39
70555;BME280;58104;52.744;15.242;2023-05-25T10:07:07;101685.16;;;22.85;34.50
70555;BME280;58104;52.744;15.242;2023-05-25T10:09:37;101680.49;;;23.00;35.77
70555;BME280;58104;52.744;15.242;2023-05-25T10:11:58;101681.39;;;22.96;36.17
70555;BME280;58104;52.744;15.242;2023-05-25T10:14:26;101681.77;;;22.91;36.40
70555;BME280;58104;52.744;15.242;2023-05-25T10:16:52;101687.48;;;23.36;35.51
70555;BME280;58104;52.744;15.242;2023-05-25T10:19:15;101686.39;;;23.53;35.51
70555;BME280;58104;52.744;15.242;2023-05-25T10:21:39;101678.92;;;23.61;35.19
70555;BME280;58104;52.744;15.242;2023-05-25T10:24:08;101671.34;;;23.58;35.21
70555;BME280;58104;52.744;15.242;2023-05-25T10:26:34;101673.25;;;23.63;35.05
70555;BME280;58104;52.744;15.242;2023-05-25T10:28:55;101674.95;;;23.54;34.95
70555;BME280;58104;52.744;15.242;2023-05-25T10:31:20;101669.05;;;23.60;34.97
70555;BME280;58104;52.744;15.242;2023-05-25T10:33:45;101667.69;;;23.77;35.00
70555;BME280;58104;52.744;15.242;2023-05-25T10:36:11;101674.25;;;23.64;35.14
70555;BME280;58104;52.744;15.242;2023-05-25T10:38:39;101678.10;;;23.39;35.19
70555;BME280;58104;52.744;15.242;2023-05-25T10:41:03;101675.40;;;23.39;35.11
70555;BME280;58104;52.744;15.242;2023-05-25T10:43:27;101678.71;;;23.30;35.18
70555;BME280;58104;52.744;15.242;2023-05-25T10:45:53;101673.64;;;23.60;35.07
70555;BME280;58104;52.744;15.242;2023-05-25T10:48:18;101672.99;;;23.82;34.61
70555;BME280;58104;52.744;15.242;2023-05-25T10:50:48;101682.35;;;23.54;34.41
70555;BME280;58104;52.744;15.242;2023-05-25T10:53:13;101679.70;;;23.25;33.73
70555;BME280;58104;52.744;15.242;2023-05-25T10:55:42;101677.09;;;23.36;34.96
70555;BME280;58104;52.744;15.242;2023-05-25T10:58:07;101675.11;;;23.35;34.98
70555;BME280;58104;52.744;15.242;2023-05-25T11:00:24;101673.20;;;23.60;34.84
70555;BME280;58104;52.744;15.242;2023-05-25T11:02:51;101667.93;;;23.46;35.17
70555;BME280;58104;52.744;15.242;2023-05-25T11:10:06;101664.02;;;23.61;34.63
70555;BME280;58104;52.744;15.242;2023-05-25T11:12:31;101660.00;;;23.73;34.25
70555;BME280;58104;52.744;15.242;2023-05-25T11:17:21;101655.34;;;23.89;34.25
70555;BME280;58104;52.744;15.242;2023-05-25T11:19:48;101656.82;;;23.94;34.18
70555;BME280;58104;52.744;15.242;2023-05-25T11:22:13;101661.09;;;23.92;34.29
70555;BME280;58104;52.744;15.242;2023-05-25T11:24:38;101655.34;;;23.59;34.71
70555;BME280;58104;52.744;15.242;2023-05-25T11:27:03;101653.19;;;23.69;34.49
70555;BME280;58104;52.744;15.242;2023-05-25T11:29:30;101649.38;;;23.58;34.63
70555;BME280;58104;52.744;15.242;2023-05-25T11:31:55;101651.72;;;24.09;34.01
70555;BME280;58104;52.744;15.242;2023-05-25T11:34:20;101647.03;;;24.08;33.87
70555;BME280;58104;52.744;15.242;2023-05-25T11:36:44;101643.58;;;24.03;34.09
70555;BME280;58104;52.744;15.242;2023-05-25T11:39:10;101646.14;;;24.08;34.02
70555;BME280;58104;52.744;15.242;2023-05-25T11:41:36;101652.57;;;23.95;34.21
70555;BME280;58104;52.744;15.242;2023-05-25T11:44:03;101649.57;;;24.15;34.00
70555;BME280;58104;52.744;15.242;2023-05-25T11:46:26;101649.31;;;24.06;34.01
70555;BME280;58104;52.744;15.242;2023-05-25T11:48:52;101646.04;;;24.16;33.92
70555;BME280;58104;52.744;15.242;2023-05-25T11:51:19;101646.89;;;23.79;34.51
70555;BME280;58104;52.744;15.242;2023-05-25T11:53:43;101642.68;;;23.78;34.65
70555;BME280;58104;52.744;15.242;2023-05-25T11:56:13;101644.22;;;23.86;34.59
70555;BME280;58104;52.744;15.242;2023-05-25T11:58:33;101638.29;;;23.57;35.16
70555;BME280;58104;52.744;15.242;2023-05-25T12:03:28;101646.39;;;23.85;34.47
70555;BME280;58104;52.744;15.242;2023-05-25T12:05:49;101635.18;;;23.63;35.06
70555;BME280;58104;52.744;15.242;2023-05-25T12:08:14;101642.92;;;23.28;35.89
70555;BME280;58104;52.744;15.242;2023-05-25T12:10:48;101629.48;;;23.32;35.87
70555;BME280;58104;52.744;15.242;2023-05-25T12:13:05;101640.16;;;23.48;35.17
70555;BME280;58104;52.744;15.242;2023-05-25T12:15:31;101630.63;;;23.57;35.07
70555;BME280;58104;52.744;15.242;2023-05-25T12:17:56;101632.05;;;23.65;34.68
70555;BME280;58104;52.744;15.242;2023-05-25T12:20:21;101628.22;;;23.77;34.36
70555;BME280;58104;52.744;15.242;2023-05-25T12:22:47;101629.49;;;23.69;34.38
70555;BME280;58104;52.744;15.242;2023-05-25T12:25:13;101628.01;;;23.55;34.57
70555;BME280;58104;52.744;15.242;2023-05-25T12:27:38;101629.37;;;23.81;34.10
70555;BME280;58104;52.744;15.242;2023-05-25T12:30:05;101626.21;;;23.73;34.25
70555;BME280;58104;52.744;15.242;2023-05-25T12:32:28;101620.97;;;23.79;34.17
70555;BME280;58104;52.744;15.242;2023-05-25T12:35:02;101615.93;;;23.78;34.16
70555;BME280;58104;52.744;15.242;2023-05-25T12:37:20;101621.17;;;23.89;33.99
70555;BME280;58104;52.744;15.242;2023-05-25T12:39:46;101621.26;;;23.76;34.26